Airfield :
LOGIN :

Register | Disclaimer

   EN    FR    IT 

 










Legend :    VFR   Marginal VFR   IFR   Intensive IFR   Very Intensive IFR
Visi :
Ceiling :
>= 8 km
>= 3000ft
5 to 8 km
1000 to 3000 ft
1500m to 5 km
500 to 1000 ft
800 to 1500m
200 to 500 ft
< 800m
< 200 ft
Symbols :   Thunderstorms  Fog  Heavy snow  Heavy precipitations  Wind > 20 kt
SIGMETs :     Misc.  Thunderstorms  Icing  Turbulence  Mountain Waves  Volcanic Ashes







- Airport Elevation : 388 ft
- IATA code : QYR
- Download approach charts


LFQB - Troyes Barberey

CURRENT METAR :
  • 190830Z AUTO 04007KT CAVOK 01/M05 Q1014

EXPIRED METARs :
  • 190800Z AUTO 04009KT CAVOK 00/M06 Q1014
  • 190730Z AUTO 03005KT 360V070 CAVOK M00/M07 Q1014
  • 190700Z AUTO 04004KT 010V090 CAVOK M01/M08 Q1014
  • 190630Z AUTO 03005KT 350V050 CAVOK M00/M08 Q1014
  • 190600Z AUTO 03006KT 350V060 CAVOK M00/M08 Q1014

TAF N/A
No reported NOTAMs for that airfield.



MET'MAP, your aeronautical weather chart ! - Copyright ORBIFLY December 2007 - Disclaimer

ORBIFLY MET'MAP TEAM :

Programming & Development : Alexandra Zaïnal
Concept & Development : Baudouin d'Aumeries
Co-Development & Prog : Marc-Olivier Méhu
Technical & hardware support : Manuel Goepfert

Contact : metmap@orbifly.com




SOURCES & CREDITS :

   NOAA